createdAt,value
2022-10-30T03:01:30.564Z,100424.96
2022-10-30T03:03:58.851Z,100426.16
2022-10-30T03:06:26.221Z,100431.67
2022-10-30T03:08:53.677Z,100433.49
2022-10-30T03:11:22.177Z,100433.89
2022-10-30T03:13:50.247Z,100438.56
2022-10-30T03:16:37.636Z,100437.34
2022-10-30T03:19:22.494Z,100443.04
2022-10-30T03:21:50.137Z,100447.49
2022-10-30T03:24:17.184Z,100451.64
2022-10-30T03:26:45.224Z,100451.39
2022-10-30T03:29:12.034Z,100452.95
2022-10-30T03:31:39.416Z,100455.59
2022-10-30T03:34:42.614Z,100456.54
2022-10-30T03:37:09.547Z,100457.25
2022-10-30T03:39:54.297Z,100454.11
2022-10-30T03:42:21.470Z,100450.12
2022-10-30T03:44:49.724Z,100452.69
2022-10-30T03:47:34.760Z,100453.36
2022-10-30T03:50:02.114Z,100450.52
2022-10-30T03:52:46.817Z,100446.84
2022-10-30T03:55:13.788Z,100446.86
2022-10-30T03:57:58.968Z,100449.92
2022-10-30T04:00:26.207Z,100452.79
2022-10-30T04:02:55.726Z,100455.95
2022-10-30T04:05:41.315Z,100458.70
2022-10-30T04:08:12.261Z,100461.27
2022-10-30T04:10:43.222Z,100456.30
2022-10-30T04:13:13.457Z,100456.25
2022-10-30T04:16:03.971Z,100450.86
2022-10-30T04:18:34.004Z,100450.96
2022-10-30T04:21:01.927Z,100449.58
2022-10-30T04:23:46.344Z,100446.08
2022-10-30T04:26:30.950Z,100446.61
2022-10-30T04:28:58.285Z,100449.45
2022-10-30T04:31:25.327Z,100445.26
2022-10-30T04:33:52.307Z,100440.36
2022-10-30T04:36:36.926Z,100441.08
2022-10-30T04:39:21.987Z,100434.71
2022-10-30T04:41:49.941Z,100435.80
2022-10-30T04:44:20.222Z,100432.00
2022-10-30T04:46:48.199Z,100427.52
2022-10-30T04:49:15.134Z,100423.35
2022-10-30T04:51:42.107Z,100419.89
2022-10-30T04:54:28.663Z,100421.16
2022-10-30T04:56:55.752Z,100415.92
2022-10-30T04:59:40.418Z,100419.48
2022-10-30T05:02:07.325Z,100417.30
2022-10-30T05:04:34.912Z,100421.67
2022-10-30T05:07:02.244Z,100425.89
2022-10-30T05:09:29.546Z,100436.23
2022-10-30T05:11:59.925Z,100439.23
2022-10-30T05:14:31.432Z,100437.48
2022-10-30T05:16:58.945Z,100436.66
2022-10-30T05:19:26.707Z,100441.73
2022-10-30T05:21:55.464Z,100452.20
2022-10-30T05:24:23.178Z,100454.09
2022-10-30T05:27:07.724Z,100454.59
2022-10-30T05:29:35.674Z,100455.83
2022-10-30T05:32:02.623Z,100456.73
2022-10-30T05:34:38.537Z,100456.45
2022-10-30T05:37:05.616Z,100462.02
2022-10-30T05:39:32.636Z,100463.27
2022-10-30T05:41:59.714Z,100473.23
2022-10-30T05:44:59.255Z,100476.55
2022-10-30T05:47:22.501Z,100473.34
2022-10-30T05:49:52.423Z,100471.19
2022-10-30T05:52:21.094Z,100472.17
2022-10-30T05:54:49.171Z,100473.46
2022-10-30T05:57:21.258Z,100474.30
2022-10-30T05:59:48.356Z,100474.34
2022-10-30T06:02:15.444Z,100475.95
2022-10-30T06:04:42.440Z,100473.59
2022-10-30T06:07:12.901Z,100464.11
2022-10-30T06:09:40.201Z,100456.79
2022-10-30T06:12:25.939Z,100454.92
2022-10-30T06:15:13.490Z,100451.83
2022-10-30T06:17:40.648Z,100447.23
2022-10-30T06:20:28.074Z,100440.84
2022-10-30T06:23:13.844Z,100435.36
2022-10-30T06:25:50.601Z,100441.54
2022-10-30T06:28:42.000Z,100445.70
2022-10-30T06:31:10.299Z,100452.45
2022-10-30T06:33:38.448Z,100450.05
2022-10-30T06:36:22.983Z,100450.63
2022-10-30T06:38:50.137Z,100451.82
2022-10-30T06:41:19.509Z,100460.16
2022-10-30T06:43:46.427Z,100460.55
2022-10-30T06:46:27.514Z,100463.24
2022-10-30T06:48:58.125Z,100465.64
2022-10-30T06:51:26.291Z,100471.91
2022-10-30T06:53:54.587Z,100474.73
2022-10-30T06:56:57.753Z,100473.69
2022-10-30T06:59:51.208Z,100481.17
2022-10-30T07:02:27.605Z,100484.91
2022-10-30T07:04:58.108Z,100483.42
2022-10-30T07:07:25.550Z,100486.20
2022-10-30T07:09:53.915Z,100485.09
2022-10-30T07:12:28.050Z,100492.17
2022-10-30T07:15:00.989Z,100484.83
2022-10-30T07:18:08.954Z,100469.77
2022-10-30T07:20:37.825Z,100475.25
2022-10-30T07:23:05.235Z,100485.66
2022-10-30T07:25:32.929Z,100484.17
2022-10-30T07:28:40.252Z,100481.91
2022-10-30T07:31:42.481Z,100482.84
2022-10-30T07:34:36.028Z,100482.81
2022-10-30T07:37:20.935Z,100476.67
2022-10-30T07:40:00.286Z,100471.48
2022-10-30T07:42:48.203Z,100468.89
2022-10-30T07:45:34.717Z,100461.03
2022-10-30T07:48:20.241Z,100461.17
2022-10-30T07:50:57.213Z,100467.77
2022-10-30T07:53:24.128Z,100467.94
2022-10-30T07:55:51.264Z,100471.16
2022-10-30T07:58:41.317Z,100472.84
2022-10-30T08:01:34.892Z,100475.72
2022-10-30T08:04:14.026Z,100478.98
2022-10-30T08:06:42.230Z,100482.34
2022-10-30T08:09:26.643Z,100482.05
2022-10-30T08:11:53.963Z,100486.25
2022-10-30T08:14:21.158Z,100487.71
2022-10-30T08:16:48.473Z,100482.37
2022-10-30T08:19:15.504Z,100480.06
2022-10-30T08:21:42.542Z,100474.56
2022-10-30T08:24:13.888Z,100472.91
2022-10-30T08:26:42.210Z,100470.98
2022-10-30T08:29:10.703Z,100477.68
2022-10-30T08:31:38.264Z,100487.19
2022-10-30T08:34:23.767Z,100491.57
2022-10-30T08:36:55.318Z,100492.13
2022-10-30T08:39:23.172Z,100491.31
2022-10-30T08:42:21.880Z,100496.31
2022-10-30T08:44:49.465Z,100494.83
2022-10-30T08:47:35.064Z,100495.45
2022-10-30T08:50:02.408Z,100497.75
2022-10-30T08:52:50.714Z,100493.27
2022-10-30T08:55:21.317Z,100482.41
2022-10-30T08:57:48.336Z,100472.05
2022-10-30T09:00:16.236Z,100467.33
2022-10-30T09:03:02.336Z,100470.91
2022-10-30T09:05:48.462Z,100470.56
2022-10-30T09:08:18.079Z,100471.30
2022-10-30T09:11:35.152Z,100489.80
2022-10-30T09:14:02.047Z,100486.23
2022-10-30T09:16:28.986Z,100488.08
2022-10-30T09:19:18.634Z,100486.66
2022-10-30T09:21:46.108Z,100487.77
2022-10-30T09:24:13.092Z,100486.30
2022-10-30T09:26:40.051Z,100479.92
2022-10-30T09:29:27.574Z,100481.98
2022-10-30T09:31:54.915Z,100479.73
2022-10-30T09:34:41.533Z,100487.48
2022-10-30T09:37:20.240Z,100493.50
2022-10-30T09:39:49.738Z,100486.19
2022-10-30T09:42:45.975Z,100487.02
2022-10-30T09:45:45.038Z,100495.21
2022-10-30T09:48:35.489Z,100499.17
2022-10-30T09:51:19.568Z,100503.95
2022-10-30T09:54:03.565Z,100504.58
2022-10-30T09:56:39.699Z,100500.59
2022-10-30T09:59:16.020Z,100498.89
2022-10-30T10:01:47.931Z,100492.98
2022-10-30T10:04:27.198Z,100491.48
2022-10-30T10:07:21.501Z,100492.00
2022-10-30T10:10:22.730Z,100490.35
2022-10-30T10:13:31.544Z,100488.30
2022-10-30T10:16:00.593Z,100486.29
2022-10-30T10:21:15.128Z,100485.34
2022-10-30T10:23:49.219Z,100485.75
2022-10-30T10:26:26.366Z,100486.17
2022-10-30T10:29:08.910Z,100490.84
2022-10-30T10:31:47.859Z,100494.72
2022-10-30T10:34:36.795Z,100495.11
2022-10-30T10:37:32.242Z,100497.19
2022-10-30T10:43:10.282Z,100492.09
2022-10-30T10:45:48.014Z,100487.73
2022-10-30T10:48:46.326Z,100483.66
2022-10-30T10:51:35.116Z,100474.88
2022-10-30T10:54:05.050Z,100471.39
2022-10-30T10:56:52.344Z,100472.08
2022-10-30T10:59:42.595Z,100475.90
2022-10-30T11:02:30.902Z,100474.58
2022-10-30T11:05:07.064Z,100477.33
2022-10-30T11:07:39.710Z,100470.98
2022-10-30T11:10:26.339Z,100472.44
2022-10-30T11:13:14.781Z,100468.34
2022-10-30T11:15:51.491Z,100469.23
2022-10-30T11:18:36.710Z,100463.36
2022-10-30T11:21:23.578Z,100459.23
2022-10-30T11:23:51.558Z,100459.68
2022-10-30T11:26:33.364Z,100461.36
2022-10-30T11:29:03.262Z,100462.88
2022-10-30T11:31:47.274Z,100458.36
2022-10-30T11:34:32.078Z,100462.91
2022-10-30T11:36:59.179Z,100454.73
2022-10-30T11:39:27.489Z,100460.46
2022-10-30T11:42:00.907Z,100465.89
2022-10-30T11:44:32.809Z,100463.78
2022-10-30T11:47:00.477Z,100463.39
2022-10-30T11:49:32.544Z,100461.88
2022-10-30T11:52:00.102Z,100458.04
2022-10-30T11:54:29.485Z,100462.60
2022-10-30T11:57:23.533Z,100459.83
2022-10-30T12:00:15.803Z,100461.83
2022-10-30T12:02:46.902Z,100454.61
2022-10-30T12:05:34.661Z,100449.95
2022-10-30T12:08:20.347Z,100443.60
2022-10-30T12:10:58.277Z,100448.28
2022-10-30T12:13:27.813Z,100445.15
2022-10-30T12:16:09.091Z,100443.48
2022-10-30T12:18:40.504Z,100436.36
2022-10-30T12:21:09.065Z,100438.85
2022-10-30T12:23:54.233Z,100434.98
2022-10-30T12:26:21.846Z,100434.35
2022-10-30T12:28:56.503Z,100435.00
2022-10-30T12:31:30.601Z,100432.88
2022-10-30T12:34:13.558Z,100429.14
2022-10-30T12:36:48.992Z,100426.27
2022-10-30T12:39:23.372Z,100429.39
2022-10-30T12:41:57.808Z,100425.74
2022-10-30T12:44:29.640Z,100427.02
2022-10-30T12:47:02.311Z,100428.19
2022-10-30T12:49:51.592Z,100424.31
2022-10-30T12:52:40.279Z,100424.20
2022-10-30T12:55:17.430Z,100424.06
2022-10-30T12:57:50.918Z,100420.14
2022-10-30T13:00:21.617Z,100421.14
2022-10-30T13:02:56.899Z,100420.00
2022-10-30T13:05:31.360Z,100417.23
2022-10-30T13:08:07.975Z,100412.56
2022-10-30T13:10:40.250Z,100404.70
2022-10-30T13:13:17.026Z,100414.00
2022-10-30T13:15:49.598Z,100410.34
2022-10-30T13:18:21.501Z,100406.85
2022-10-30T13:21:02.740Z,100412.67
2022-10-30T13:23:43.567Z,100409.34
2022-10-30T13:26:22.021Z,100416.35
2022-10-30T13:29:04.674Z,100414.97
2022-10-30T13:31:42.779Z,100412.28
2022-10-30T13:34:34.302Z,100410.86
2022-10-30T13:37:10.052Z,100406.48
2022-10-30T13:39:55.138Z,100401.73
2022-10-30T13:42:48.267Z,100405.92
2022-10-30T13:45:41.347Z,100403.41
2022-10-30T13:48:19.998Z,100406.56
2022-10-30T13:51:07.880Z,100404.70
2022-10-30T13:53:44.395Z,100402.99
2022-10-30T13:56:16.511Z,100405.39
2022-10-30T13:58:52.819Z,100406.38
2022-10-30T14:01:48.408Z,100408.40
2022-10-30T14:04:20.855Z,100410.16
2022-10-30T14:06:54.196Z,100412.08
2022-10-30T14:09:31.559Z,100409.07
2022-10-30T14:12:01.687Z,100406.88
2022-10-30T14:14:49.038Z,100409.27
2022-10-30T14:17:17.789Z,100402.17
2022-10-30T14:20:19.293Z,100404.77
2022-10-30T14:23:06.232Z,100400.11
2022-10-30T14:25:33.166Z,100398.17
2022-10-30T14:28:00.336Z,100393.24
2022-10-30T14:30:29.882Z,100394.95
2022-10-30T14:33:41.427Z,100397.02
2022-10-30T14:36:20.078Z,100400.47
2022-10-30T14:38:55.840Z,100394.30
2022-10-30T14:41:52.279Z,100391.31
2022-10-30T14:44:48.067Z,100397.14
2022-10-30T14:47:46.234Z,100413.31
2022-10-30T14:50:54.319Z,100420.02
2022-10-30T14:53:49.573Z,100416.02
2022-10-30T14:56:42.655Z,100390.26
2022-10-30T14:59:23.620Z,100405.98
2022-10-30T15:01:56.590Z,100412.31
2022-10-30T15:04:54.289Z,100405.41
2022-10-30T15:07:28.894Z,100389.94
2022-10-30T15:10:13.047Z,100392.69
2022-10-30T15:12:59.657Z,100400.60
2022-10-30T15:15:29.668Z,100393.24
2022-10-30T15:17:59.840Z,100389.55
2022-10-30T15:20:31.511Z,100394.75
2022-10-30T15:23:02.861Z,100393.45
2022-10-30T15:25:34.787Z,100390.37
2022-10-30T15:28:22.481Z,100394.23
2022-10-30T15:31:16.272Z,100405.41
2022-10-30T15:33:43.639Z,100412.58
2022-10-30T15:36:20.282Z,100402.15
2022-10-30T15:39:03.940Z,100401.52
2022-10-30T15:41:31.297Z,100400.21
2022-10-30T15:44:19.096Z,100391.66
2022-10-30T15:46:49.818Z,100384.58
2022-10-30T15:49:22.299Z,100403.23
2022-10-30T15:51:50.152Z,100412.06
2022-10-30T15:54:21.312Z,100409.35
2022-10-30T15:57:26.959Z,100398.75
2022-10-30T15:59:39.285Z,100390.77
2022-10-30T16:02:21.402Z,100380.48
2022-10-30T16:05:02.139Z,100376.84
2022-10-30T16:07:32.511Z,100389.70
2022-10-30T16:10:19.562Z,100401.36
2022-10-30T16:12:47.221Z,100397.50
2022-10-30T16:15:27.437Z,100388.52
2022-10-30T16:18:06.000Z,100390.56
2022-10-30T16:20:52.423Z,100395.02
2022-10-30T16:23:27.639Z,100398.02
2022-10-30T16:25:59.033Z,100397.27
2022-10-30T16:28:31.747Z,100398.86
2022-10-30T16:31:20.203Z,100398.98
2022-10-30T16:33:47.772Z,100404.30
2022-10-30T16:36:33.128Z,100403.27
2022-10-30T16:39:00.480Z,100399.48
2022-10-30T16:41:29.455Z,100397.60
2022-10-30T16:44:14.827Z,100392.67
2022-10-30T16:46:47.095Z,100393.12
2022-10-30T16:49:20.138Z,100393.39
2022-10-30T16:52:07.369Z,100398.21
2022-10-30T16:55:00.809Z,100406.92
2022-10-30T16:57:49.130Z,100414.60
2022-10-30T17:00:25.912Z,100418.67
2022-10-30T17:02:55.879Z,100423.57
2022-10-30T17:05:27.626Z,100423.05
2022-10-30T17:08:00.308Z,100420.21
2022-10-30T17:10:37.403Z,100418.56
2022-10-30T17:13:34.903Z,100423.27
2022-10-30T17:16:25.956Z,100424.75
2022-10-30T17:18:53.387Z,100415.92
2022-10-30T17:21:23.107Z,100418.45
2022-10-30T17:23:51.709Z,100417.17
2022-10-30T17:26:19.446Z,100419.73
2022-10-30T17:28:50.765Z,100419.65
2022-10-30T17:31:31.191Z,100425.39
2022-10-30T17:34:20.424Z,100426.70
2022-10-30T17:36:48.359Z,100425.23
2022-10-30T17:39:32.885Z,100427.02
2022-10-30T17:42:00.442Z,100425.77
2022-10-30T17:44:29.942Z,100423.15
2022-10-30T17:46:56.832Z,100424.77
2022-10-30T17:49:28.871Z,100423.56
2022-10-30T17:51:55.910Z,100420.47
2022-10-30T17:54:23.182Z,100423.16
2022-10-30T17:57:07.968Z,100422.05
2022-10-30T17:59:34.907Z,100418.05
2022-10-30T18:02:21.435Z,100413.94
2022-10-30T18:04:49.510Z,100412.58
2022-10-30T18:07:17.895Z,100412.92
2022-10-30T18:10:02.536Z,100418.44
2022-10-30T18:12:47.100Z,100414.77
2022-10-30T18:15:30.492Z,100415.77
2022-10-30T18:17:57.801Z,100414.52
2022-10-30T18:20:25.001Z,100414.14
2022-10-30T18:22:52.217Z,100419.36
2022-10-30T18:25:25.736Z,100419.11
2022-10-30T18:27:53.295Z,100418.42
2022-10-30T18:30:20.995Z,100418.89
2022-10-30T18:32:48.723Z,100418.54
2022-10-30T18:35:26.911Z,100418.09
2022-10-30T18:37:54.020Z,100423.27
2022-10-30T18:40:38.793Z,100420.30
2022-10-30T18:43:05.636Z,100422.84
2022-10-30T18:45:50.112Z,100421.20
2022-10-30T18:48:17.042Z,100421.15
2022-10-30T18:50:44.123Z,100419.09
2022-10-30T18:53:34.215Z,100420.92
2022-10-30T18:56:20.553Z,100416.98
2022-10-30T18:58:47.758Z,100414.13
2022-10-30T19:01:15.458Z,100413.19
2022-10-30T19:03:43.518Z,100415.88
2022-10-30T19:06:13.500Z,100409.86
2022-10-30T19:08:40.771Z,100410.38
2022-10-30T19:11:08.212Z,100408.33
2022-10-30T19:13:35.684Z,100410.98
2022-10-30T19:16:02.538Z,100410.13
2022-10-30T19:18:47.602Z,100414.80
2022-10-30T19:21:18.187Z,100416.60
2022-10-30T19:23:45.494Z,100413.98
2022-10-30T19:26:30.012Z,100417.80
2022-10-30T19:28:57.184Z,100415.75
2022-10-30T19:31:23.992Z,100414.45
2022-10-30T19:33:56.181Z,100415.20
2022-10-30T19:36:31.922Z,100415.02
2022-10-30T19:39:04.220Z,100416.68
2022-10-30T19:41:35.352Z,100414.60
2022-10-30T19:44:02.217Z,100416.06
2022-10-30T19:46:46.956Z,100414.00
2022-10-30T19:49:19.135Z,100417.64
2022-10-30T19:52:04.019Z,100415.29
2022-10-30T19:54:31.314Z,100414.27
2022-10-30T19:59:43.567Z,100417.83
2022-10-30T20:02:12.574Z,100420.27
2022-10-30T20:04:39.531Z,100425.45
2022-10-30T20:07:06.396Z,100426.03
2022-10-30T20:09:33.614Z,100434.44
2022-10-30T20:12:18.048Z,100433.38
2022-10-30T20:14:44.883Z,100430.61
2022-10-30T20:17:13.439Z,100431.75
2022-10-30T20:19:41.884Z,100430.65
2022-10-30T20:22:11.283Z,100434.45
2022-10-30T20:24:38.130Z,100437.98
2022-10-30T20:27:05.065Z,100440.23
2022-10-30T20:29:49.390Z,100439.52
2022-10-30T20:32:34.236Z,100441.10
2022-10-30T20:35:01.218Z,100443.45
2022-10-30T20:37:28.254Z,100438.94
2022-10-30T20:40:18.437Z,100440.21
2022-10-30T20:42:46.223Z,100440.01
2022-10-30T20:45:18.287Z,100440.21
2022-10-30T20:47:45.708Z,100443.48
2022-10-30T20:50:13.574Z,100439.85
2022-10-30T20:52:40.799Z,100441.86
2022-10-30T20:55:09.884Z,100446.67
2022-10-30T21:00:05.188Z,100450.07
2022-10-30T21:02:32.172Z,100450.53
2022-10-30T21:05:11.536Z,100446.79
2022-10-30T21:07:44.381Z,100449.10
2022-10-30T21:10:11.708Z,100444.77
2022-10-30T21:12:38.633Z,100446.58
2022-10-30T21:15:06.150Z,100446.34
2022-10-30T21:17:33.175Z,100445.90
2022-10-30T21:20:00.098Z,100442.81
2022-10-30T21:22:27.093Z,100439.91
2022-10-30T21:24:53.938Z,100436.46
2022-10-30T21:27:20.816Z,100437.16
2022-10-30T21:29:47.866Z,100438.19
2022-10-30T21:32:14.848Z,100436.30
2022-10-30T21:34:41.706Z,100435.98
2022-10-30T21:37:08.509Z,100434.63
2022-10-30T21:39:35.417Z,100437.63
2022-10-30T21:42:02.339Z,100440.20
2022-10-30T21:44:29.237Z,100440.16
2022-10-30T21:47:14.764Z,100439.13
2022-10-30T21:49:41.599Z,100440.73
2022-10-30T21:52:11.309Z,100441.46
2022-10-30T21:54:40.319Z,100445.20
2022-10-30T21:57:07.311Z,100443.64
2022-10-30T21:59:34.176Z,100442.80
2022-10-30T22:02:01.008Z,100441.72
2022-10-30T22:04:29.518Z,100436.77
2022-10-30T22:06:56.566Z,100433.90
2022-10-30T22:09:40.948Z,100429.68
2022-10-30T22:12:08.695Z,100432.01
2022-10-30T22:14:35.735Z,100426.73
2022-10-30T22:17:02.620Z,100426.16
2022-10-30T22:19:29.465Z,100424.85
2022-10-30T22:22:14.113Z,100425.59
2022-10-30T22:24:41.075Z,100424.67
2022-10-30T22:27:25.516Z,100423.44
2022-10-30T22:29:52.278Z,100425.46
2022-10-30T22:32:37.274Z,100419.14
2022-10-30T22:35:21.840Z,100416.54
2022-10-30T22:38:06.268Z,100413.04
2022-10-30T22:40:33.180Z,100418.28
2022-10-30T22:43:00.282Z,100419.11
2022-10-30T22:45:27.755Z,100416.20
2022-10-30T22:48:12.492Z,100412.42
2022-10-30T22:50:39.275Z,100414.73
2022-10-30T22:53:06.086Z,100411.01
2022-10-30T22:55:32.920Z,100409.11
2022-10-30T22:58:00.634Z,100409.84
2022-10-30T23:00:29.270Z,100413.39
2022-10-30T23:02:56.677Z,100413.39
2022-10-30T23:05:23.687Z,100413.20
2022-10-30T23:07:51.648Z,100410.88
2022-10-30T23:10:18.765Z,100408.25
2022-10-30T23:12:45.548Z,100410.89
2022-10-30T23:15:13.791Z,100408.70
2022-10-30T23:17:40.577Z,100411.79
2022-10-30T23:20:09.891Z,100414.70
2022-10-30T23:22:36.796Z,100415.73
2022-10-30T23:25:03.695Z,100416.70
2022-10-30T23:27:30.512Z,100416.23
2022-10-30T23:29:57.844Z,100418.77
2022-10-30T23:32:24.673Z,100417.45
2022-10-30T23:34:51.438Z,100419.63
2022-10-30T23:37:18.287Z,100423.90
2022-10-30T23:39:45.134Z,100425.50
2022-10-30T23:42:12.113Z,100433.14
2022-10-30T23:44:39.004Z,100436.23
2022-10-30T23:47:06.148Z,100436.37
2022-10-30T23:49:34.161Z,100436.30
2022-10-30T23:52:01.359Z,100437.29
2022-10-30T23:54:28.164Z,100433.42
2022-10-30T23:56:55.099Z,100431.29
2022-10-30T23:59:22.139Z,100432.00
